Strona główna
METAR-TAF:

METAR-TAF

Lotnisko :

Rapid City Regional Airport

Rapid City, Dakota Południowa, Stany Zjednoczone

Szerokość geograficzna: 44-02-44N, Długość geograficzna: 103-03-14W, wysokość: 976 m

Aktualna obserwacja pogody

Raport powstał 53 minut temu, godzina 03:52 UTC
Wiatr 6 kt od zachodnio-północny zachód
Temperatura -4°C
Wilgotność 74%
Ciśnienie 1020 hPa
Widzialność: 16.1 km
bezchmurnie

METAR: KRAP 280352Z 30006KT 10SM CLR M04/M08 A3012 RMK AO2 SLP236 T10391078

czas: 21:45 (04:45 UTC)

Prognoza

Raport powstał 5 godziny i 25 minut temu, godzina 23:20 UTC
Prognoza ważna od 28 godzina 00 UTC do 28 godzina 24 UTC
Wiatr 9 kt od północny zachód
Widzialność: 10 km
Mało chmury na wysokości 5000 ft
Od 28 godzina 0600 UTC
Wiatr 13 kt od północny zachód
Widzialność: 10 km
bezchmurnie
Od 28 godzina 1300 UTC
Wiatr 9 kt od zachodnio-północny zachód
Widzialność: 10 km
bezchmurnie

TAF: KRAP 272320Z 2800/2824 32009KT P6SM FEW050 FM280600 31013KT P6SM SKC WS020/32045KT FM281300 30009KT P6SM SKC

Obserwacja i prognoza pogody dla ponad 4000 lotnisk (raport METAR i TAF).

Dostępne stacje oznaczono żółtymi i czerwonymi punktami na mapie.

Najedź kursorem aby zobaczyć nazwę stacji.

Kliknij aby zobaczyć obserwacje i prognozy pogody.

Aby zmienić mapę: kliknij na zielony przycisk z czarnym krzyżykiem, aby powiększyć; na zielony przycisk z myślnikiem, aby pomniejszyć; na zielone strzałki, aby przejść do map sąsiednich.


METAR-TAF: